sensor_id;sensor_type;location;lat;lon;timestamp;P1;durP1;ratioP1;P2;durP2;ratioP2
61358;SDS011;47228;46.762;23.598;2023-02-15T00:00:14;19.70;;;11.90;;
61358;SDS011;47228;46.762;23.598;2023-02-15T00:03:02;18.60;;;12.20;;
61358;SDS011;47228;46.762;23.598;2023-02-15T00:05:30;21.20;;;12.60;;
61358;SDS011;47228;46.762;23.598;2023-02-15T00:07:58;19.20;;;11.80;;
61358;SDS011;47228;46.762;23.598;2023-02-15T00:10:26;16.80;;;11.20;;
61358;SDS011;47228;46.762;23.598;2023-02-15T00:12:54;17.70;;;11.20;;
61358;SDS011;47228;46.762;23.598;2023-02-15T00:15:22;18.70;;;12.00;;
61358;SDS011;47228;46.762;23.598;2023-02-15T00:17:50;18.10;;;12.00;;
61358;SDS011;47228;46.762;23.598;2023-02-15T00:20:18;21.50;;;12.20;;
61358;SDS011;47228;46.762;23.598;2023-02-15T00:22:46;18.40;;;12.30;;
61358;SDS011;47228;46.762;23.598;2023-02-15T00:25:14;18.60;;;11.60;;
61358;SDS011;47228;46.762;23.598;2023-02-15T00:27:42;16.90;;;11.20;;
61358;SDS011;47228;46.762;23.598;2023-02-15T00:30:10;19.10;;;11.70;;
61358;SDS011;47228;46.762;23.598;2023-02-15T00:32:38;19.70;;;12.00;;
61358;SDS011;47228;46.762;23.598;2023-02-15T00:35:06;19.90;;;12.10;;
61358;SDS011;47228;46.762;23.598;2023-02-15T00:37:35;20.90;;;12.80;;
61358;SDS011;47228;46.762;23.598;2023-02-15T00:40:03;19.70;;;11.90;;
61358;SDS011;47228;46.762;23.598;2023-02-15T00:42:31;17.80;;;11.80;;
61358;SDS011;47228;46.762;23.598;2023-02-15T00:44:59;16.00;;;11.30;;
61358;SDS011;47228;46.762;23.598;2023-02-15T00:47:27;19.00;;;11.50;;
61358;SDS011;47228;46.762;23.598;2023-02-15T00:49:55;20.10;;;11.60;;
61358;SDS011;47228;46.762;23.598;2023-02-15T00:52:23;20.00;;;12.00;;
61358;SDS011;47228;46.762;23.598;2023-02-15T00:54:51;20.80;;;13.00;;
61358;SDS011;47228;46.762;23.598;2023-02-15T00:57:19;19.60;;;12.00;;
61358;SDS011;47228;46.762;23.598;2023-02-15T00:59:47;17.80;;;12.20;;
61358;SDS011;47228;46.762;23.598;2023-02-15T01:02:15;19.30;;;12.60;;
61358;SDS011;47228;46.762;23.598;2023-02-15T01:04:43;20.30;;;12.50;;
61358;SDS011;47228;46.762;23.598;2023-02-15T01:07:11;21.90;;;12.90;;
61358;SDS011;47228;46.762;23.598;2023-02-15T01:09:39;20.30;;;12.30;;
61358;SDS011;47228;46.762;23.598;2023-02-15T01:12:07;21.60;;;12.10;;
61358;SDS011;47228;46.762;23.598;2023-02-15T01:14:36;22.10;;;12.20;;
61358;SDS011;47228;46.762;23.598;2023-02-15T01:17:03;20.60;;;11.90;;
61358;SDS011;47228;46.762;23.598;2023-02-15T01:19:32;18.90;;;12.50;;
61358;SDS011;47228;46.762;23.598;2023-02-15T01:22:00;19.60;;;12.10;;
61358;SDS011;47228;46.762;23.598;2023-02-15T01:24:28;20.00;;;12.50;;
61358;SDS011;47228;46.762;23.598;2023-02-15T01:26:56;20.50;;;11.50;;
61358;SDS011;47228;46.762;23.598;2023-02-15T01:29:24;19.10;;;12.00;;
61358;SDS011;47228;46.762;23.598;2023-02-15T01:31:52;21.30;;;12.00;;
61358;SDS011;47228;46.762;23.598;2023-02-15T01:34:20;20.10;;;12.50;;
61358;SDS011;47228;46.762;23.598;2023-02-15T01:36:48;19.60;;;12.20;;
61358;SDS011;47228;46.762;23.598;2023-02-15T01:39:16;21.80;;;12.50;;
61358;SDS011;47228;46.762;23.598;2023-02-15T01:41:43;23.30;;;13.60;;
61358;SDS011;47228;46.762;23.598;2023-02-15T01:47:22;20.50;;;11.40;;
61358;SDS011;47228;46.762;23.598;2023-02-15T01:50:06;19.20;;;11.90;;
61358;SDS011;47228;46.762;23.598;2023-02-15T01:52:53;19.70;;;12.20;;
61358;SDS011;47228;46.762;23.598;2023-02-15T01:55:27;20.90;;;12.70;;
61358;SDS011;47228;46.762;23.598;2023-02-15T01:57:59;19.00;;;11.80;;
61358;SDS011;47228;46.762;23.598;2023-02-15T02:00:28;19.60;;;12.10;;
61358;SDS011;47228;46.762;23.598;2023-02-15T02:02:57;18.70;;;12.00;;
61358;SDS011;47228;46.762;23.598;2023-02-15T02:05:25;21.30;;;12.50;;
61358;SDS011;47228;46.762;23.598;2023-02-15T02:07:55;20.80;;;12.70;;
61358;SDS011;47228;46.762;23.598;2023-02-15T02:10:26;22.30;;;12.50;;
61358;SDS011;47228;46.762;23.598;2023-02-15T02:12:56;21.10;;;12.40;;
61358;SDS011;47228;46.762;23.598;2023-02-15T02:33:04;22.50;;;13.20;;
61358;SDS011;47228;46.762;23.598;2023-02-15T02:44:10;18.10;;;11.80;;
61358;SDS011;47228;46.762;23.598;2023-02-15T02:49:36;23.40;;;13.50;;
61358;SDS011;47228;46.762;23.598;2023-02-15T02:52:31;20.80;;;12.90;;
61358;SDS011;47228;46.762;23.598;2023-02-15T02:55:01;20.50;;;12.10;;
61358;SDS011;47228;46.762;23.598;2023-02-15T02:57:33;20.60;;;12.90;;
61358;SDS011;47228;46.762;23.598;2023-02-15T03:00:05;20.90;;;12.40;;
61358;SDS011;47228;46.762;23.598;2023-02-15T03:02:38;24.30;;;12.60;;
61358;SDS011;47228;46.762;23.598;2023-02-15T03:05:12;22.90;;;12.20;;
61358;SDS011;47228;46.762;23.598;2023-02-15T03:07:44;21.10;;;13.00;;
61358;SDS011;47228;46.762;23.598;2023-02-15T03:10:16;22.30;;;14.30;;
61358;SDS011;47228;46.762;23.598;2023-02-15T03:12:48;23.80;;;14.90;;
61358;SDS011;47228;46.762;23.598;2023-02-15T03:15:19;21.30;;;13.00;;
61358;SDS011;47228;46.762;23.598;2023-02-15T03:17:51;20.70;;;12.90;;
61358;SDS011;47228;46.762;23.598;2023-02-15T03:20:32;21.50;;;12.90;;
61358;SDS011;47228;46.762;23.598;2023-02-15T03:23:04;19.50;;;12.30;;
61358;SDS011;47228;46.762;23.598;2023-02-15T03:25:36;19.80;;;12.60;;
61358;SDS011;47228;46.762;23.598;2023-02-15T03:28:31;22.70;;;13.50;;
61358;SDS011;47228;46.762;23.598;2023-02-15T03:31:02;23.40;;;14.00;;
61358;SDS011;47228;46.762;23.598;2023-02-15T03:33:34;21.00;;;14.20;;
61358;SDS011;47228;46.762;23.598;2023-02-15T03:38:48;21.60;;;13.80;;
61358;SDS011;47228;46.762;23.598;2023-02-15T03:41:20;24.30;;;13.00;;
61358;SDS011;47228;46.762;23.598;2023-02-15T03:43:55;19.40;;;11.90;;
61358;SDS011;47228;46.762;23.598;2023-02-15T03:46:35;18.20;;;11.70;;
61358;SDS011;47228;46.762;23.598;2023-02-15T03:51:54;23.20;;;14.10;;
61358;SDS011;47228;46.762;23.598;2023-02-15T03:54:27;23.70;;;13.60;;
61358;SDS011;47228;46.762;23.598;2023-02-15T03:57:20;20.30;;;12.90;;
61358;SDS011;47228;46.762;23.598;2023-02-15T04:00:12;19.90;;;12.60;;
61358;SDS011;47228;46.762;23.598;2023-02-15T04:05:39;21.30;;;13.50;;
61358;SDS011;47228;46.762;23.598;2023-02-15T04:08:08;22.00;;;12.50;;
61358;SDS011;47228;46.762;23.598;2023-02-15T04:10:37;21.00;;;14.00;;
61358;SDS011;47228;46.762;23.598;2023-02-15T04:13:24;20.00;;;13.00;;
61358;SDS011;47228;46.762;23.598;2023-02-15T04:15:58;23.60;;;13.80;;
61358;SDS011;47228;46.762;23.598;2023-02-15T04:18:38;24.20;;;13.40;;
61358;SDS011;47228;46.762;23.598;2023-02-15T04:21:28;19.50;;;12.20;;
61358;SDS011;47228;46.762;23.598;2023-02-15T04:24:16;19.10;;;12.60;;
61358;SDS011;47228;46.762;23.598;2023-02-15T04:27:03;22.70;;;13.30;;
61358;SDS011;47228;46.762;23.598;2023-02-15T04:29:32;22.30;;;13.40;;
61358;SDS011;47228;46.762;23.598;2023-02-15T04:32:00;22.10;;;12.70;;
61358;SDS011;47228;46.762;23.598;2023-02-15T04:34:29;20.40;;;12.40;;
61358;SDS011;47228;46.762;23.598;2023-02-15T04:36:57;23.20;;;14.40;;
61358;SDS011;47228;46.762;23.598;2023-02-15T04:39:25;22.00;;;13.10;;
61358;SDS011;47228;46.762;23.598;2023-02-15T04:41:53;21.10;;;12.60;;
61358;SDS011;47228;46.762;23.598;2023-02-15T04:44:21;24.10;;;13.50;;
61358;SDS011;47228;46.762;23.598;2023-02-15T04:46:49;26.40;;;17.40;;
61358;SDS011;47228;46.762;23.598;2023-02-15T04:49:17;22.30;;;14.50;;
61358;SDS011;47228;46.762;23.598;2023-02-15T04:51:44;22.90;;;14.70;;
61358;SDS011;47228;46.762;23.598;2023-02-15T04:54:12;20.70;;;13.00;;
61358;SDS011;47228;46.762;23.598;2023-02-15T04:56:40;22.10;;;13.20;;
61358;SDS011;47228;46.762;23.598;2023-02-15T04:59:10;23.10;;;14.00;;
61358;SDS011;47228;46.762;23.598;2023-02-15T05:01:39;22.10;;;13.70;;
61358;SDS011;47228;46.762;23.598;2023-02-15T05:04:07;21.60;;;13.60;;
61358;SDS011;47228;46.762;23.598;2023-02-15T05:06:38;21.30;;;12.70;;
61358;SDS011;47228;46.762;23.598;2023-02-15T05:09:06;23.90;;;13.00;;
61358;SDS011;47228;46.762;23.598;2023-02-15T05:11:33;24.80;;;14.90;;
61358;SDS011;47228;46.762;23.598;2023-02-15T05:14:01;24.00;;;15.00;;
61358;SDS011;47228;46.762;23.598;2023-02-15T05:16:29;23.70;;;14.40;;
61358;SDS011;47228;46.762;23.598;2023-02-15T05:18:57;23.10;;;14.20;;
61358;SDS011;47228;46.762;23.598;2023-02-15T05:21:25;24.40;;;14.30;;
61358;SDS011;47228;46.762;23.598;2023-02-15T05:23:57;25.20;;;14.60;;
61358;SDS011;47228;46.762;23.598;2023-02-15T05:26:25;28.10;;;17.50;;
61358;SDS011;47228;46.762;23.598;2023-02-15T05:29:11;30.00;;;17.30;;
61358;SDS011;47228;46.762;23.598;2023-02-15T05:31:39;39.50;;;22.80;;
61358;SDS011;47228;46.762;23.598;2023-02-15T05:34:08;29.00;;;17.50;;
61358;SDS011;47228;46.762;23.598;2023-02-15T05:36:36;24.90;;;16.00;;
61358;SDS011;47228;46.762;23.598;2023-02-15T05:39:04;27.30;;;17.40;;
61358;SDS011;47228;46.762;23.598;2023-02-15T05:41:33;24.10;;;14.20;;
61358;SDS011;47228;46.762;23.598;2023-02-15T05:44:01;25.30;;;14.60;;
61358;SDS011;47228;46.762;23.598;2023-02-15T05:46:29;24.00;;;15.00;;
61358;SDS011;47228;46.762;23.598;2023-02-15T05:48:57;26.50;;;15.20;;
61358;SDS011;47228;46.762;23.598;2023-02-15T05:51:25;25.00;;;14.40;;
61358;SDS011;47228;46.762;23.598;2023-02-15T05:53:53;24.90;;;14.10;;
61358;SDS011;47228;46.762;23.598;2023-02-15T05:56:21;23.00;;;13.50;;
61358;SDS011;47228;46.762;23.598;2023-02-15T05:58:49;24.60;;;14.70;;
61358;SDS011;47228;46.762;23.598;2023-02-15T06:01:20;22.80;;;14.30;;
61358;SDS011;47228;46.762;23.598;2023-02-15T06:03:50;21.80;;;13.70;;
61358;SDS011;47228;46.762;23.598;2023-02-15T06:06:19;22.70;;;14.20;;
61358;SDS011;47228;46.762;23.598;2023-02-15T06:08:47;22.80;;;13.90;;
61358;SDS011;47228;46.762;23.598;2023-02-15T06:11:15;23.00;;;14.00;;
61358;SDS011;47228;46.762;23.598;2023-02-15T06:13:43;24.30;;;14.70;;
61358;SDS011;47228;46.762;23.598;2023-02-15T06:16:11;25.10;;;14.90;;
61358;SDS011;47228;46.762;23.598;2023-02-15T06:18:39;24.00;;;14.00;;
61358;SDS011;47228;46.762;23.598;2023-02-15T06:21:07;25.70;;;15.30;;
61358;SDS011;47228;46.762;23.598;2023-02-15T06:23:35;23.60;;;15.00;;
61358;SDS011;47228;46.762;23.598;2023-02-15T06:26:03;25.40;;;14.70;;
61358;SDS011;47228;46.762;23.598;2023-02-15T06:28:31;27.00;;;15.60;;
61358;SDS011;47228;46.762;23.598;2023-02-15T06:30:59;27.20;;;14.90;;
61358;SDS011;47228;46.762;23.598;2023-02-15T06:33:27;29.10;;;15.90;;
61358;SDS011;47228;46.762;23.598;2023-02-15T06:35:56;27.10;;;16.80;;
61358;SDS011;47228;46.762;23.598;2023-02-15T06:38:24;32.10;;;16.70;;
61358;SDS011;47228;46.762;23.598;2023-02-15T06:40:51;25.80;;;15.60;;
61358;SDS011;47228;46.762;23.598;2023-02-15T06:43:21;26.60;;;15.50;;
61358;SDS011;47228;46.762;23.598;2023-02-15T06:45:49;26.60;;;16.00;;
61358;SDS011;47228;46.762;23.598;2023-02-15T06:48:17;30.60;;;16.80;;
61358;SDS011;47228;46.762;23.598;2023-02-15T06:50:45;31.10;;;16.20;;
61358;SDS011;47228;46.762;23.598;2023-02-15T06:53:13;30.00;;;18.20;;
61358;SDS011;47228;46.762;23.598;2023-02-15T06:55:41;31.10;;;17.80;;
61358;SDS011;47228;46.762;23.598;2023-02-15T06:58:09;31.50;;;17.70;;
61358;SDS011;47228;46.762;23.598;2023-02-15T07:00:37;33.10;;;17.40;;
61358;SDS011;47228;46.762;23.598;2023-02-15T07:03:05;27.60;;;16.50;;
61358;SDS011;47228;46.762;23.598;2023-02-15T07:05:33;31.60;;;18.10;;
61358;SDS011;47228;46.762;23.598;2023-02-15T07:08:02;30.50;;;17.60;;
61358;SDS011;47228;46.762;23.598;2023-02-15T07:10:30;27.20;;;16.10;;
61358;SDS011;47228;46.762;23.598;2023-02-15T07:12:58;27.20;;;16.00;;
61358;SDS011;47228;46.762;23.598;2023-02-15T07:15:26;23.60;;;14.40;;
61358;SDS011;47228;46.762;23.598;2023-02-15T07:17:54;24.30;;;13.70;;
61358;SDS011;47228;46.762;23.598;2023-02-15T07:20:22;27.60;;;15.20;;
61358;SDS011;47228;46.762;23.598;2023-02-15T07:22:51;26.70;;;14.70;;
61358;SDS011;47228;46.762;23.598;2023-02-15T07:25:19;23.80;;;14.00;;
61358;SDS011;47228;46.762;23.598;2023-02-15T07:27:47;25.20;;;14.90;;
61358;SDS011;47228;46.762;23.598;2023-02-15T07:30:16;28.10;;;15.30;;
61358;SDS011;47228;46.762;23.598;2023-02-15T07:32:45;25.70;;;14.90;;
61358;SDS011;47228;46.762;23.598;2023-02-15T07:35:32;50.10;;;26.80;;
61358;SDS011;47228;46.762;23.598;2023-02-15T07:38:01;52.80;;;27.40;;
61358;SDS011;47228;46.762;23.598;2023-02-15T07:40:29;61.40;;;30.20;;
61358;SDS011;47228;46.762;23.598;2023-02-15T07:42:57;51.90;;;27.70;;
61358;SDS011;47228;46.762;23.598;2023-02-15T07:45:26;51.80;;;26.60;;
61358;SDS011;47228;46.762;23.598;2023-02-15T07:47:54;46.00;;;27.10;;
61358;SDS011;47228;46.762;23.598;2023-02-15T07:50:22;49.40;;;27.30;;
61358;SDS011;47228;46.762;23.598;2023-02-15T07:52:50;50.00;;;27.20;;
61358;SDS011;47228;46.762;23.598;2023-02-15T07:55:18;48.60;;;26.60;;
61358;SDS011;47228;46.762;23.598;2023-02-15T07:57:47;47.90;;;25.50;;
61358;SDS011;47228;46.762;23.598;2023-02-15T08:00:18;52.00;;;26.20;;
61358;SDS011;47228;46.762;23.598;2023-02-15T08:02:50;46.60;;;25.10;;
61358;SDS011;47228;46.762;23.598;2023-02-15T08:05:41;47.90;;;27.90;;
61358;SDS011;47228;46.762;23.598;2023-02-15T08:08:11;48.40;;;26.00;;
61358;SDS011;47228;46.762;23.598;2023-02-15T08:16:35;47.10;;;25.70;;
61358;SDS011;47228;46.762;23.598;2023-02-15T08:19:21;46.70;;;24.00;;
61358;SDS011;47228;46.762;23.598;2023-02-15T08:21:54;44.50;;;23.90;;
61358;SDS011;47228;46.762;23.598;2023-02-15T08:24:28;39.40;;;21.00;;
61358;SDS011;47228;46.762;23.598;2023-02-15T08:27:08;31.10;;;15.20;;
61358;SDS011;47228;46.762;23.598;2023-02-15T08:29:38;24.10;;;13.80;;
61358;SDS011;47228;46.762;23.598;2023-02-15T08:32:08;21.90;;;11.90;;
61358;SDS011;47228;46.762;23.598;2023-02-15T08:34:38;23.80;;;11.60;;
61358;SDS011;47228;46.762;23.598;2023-02-15T08:37:08;22.60;;;11.10;;
61358;SDS011;47228;46.762;23.598;2023-02-15T08:39:36;25.50;;;12.00;;
61358;SDS011;47228;46.762;23.598;2023-02-15T08:42:04;20.60;;;12.00;;
61358;SDS011;47228;46.762;23.598;2023-02-15T08:44:32;23.10;;;11.20;;
61358;SDS011;47228;46.762;23.598;2023-02-15T08:47:00;21.70;;;10.40;;
61358;SDS011;47228;46.762;23.598;2023-02-15T08:49:31;23.50;;;10.90;;
61358;SDS011;47228;46.762;23.598;2023-02-15T08:52:02;24.20;;;12.40;;
61358;SDS011;47228;46.762;23.598;2023-02-15T08:54:32;26.20;;;13.30;;
61358;SDS011;47228;46.762;23.598;2023-02-15T08:57:00;22.20;;;12.30;;
61358;SDS011;47228;46.762;23.598;2023-02-15T08:59:28;23.30;;;12.90;;
61358;SDS011;47228;46.762;23.598;2023-02-15T09:01:56;25.10;;;13.60;;
61358;SDS011;47228;46.762;23.598;2023-02-15T09:04:24;53.80;;;26.60;;
61358;SDS011;47228;46.762;23.598;2023-02-15T09:06:52;51.40;;;26.80;;
61358;SDS011;47228;46.762;23.598;2023-02-15T09:09:20;50.00;;;26.60;;
61358;SDS011;47228;46.762;23.598;2023-02-15T09:11:49;54.70;;;25.40;;
61358;SDS011;47228;46.762;23.598;2023-02-15T09:14:25;53.40;;;28.10;;
61358;SDS011;47228;46.762;23.598;2023-02-15T09:16:54;54.30;;;27.30;;
61358;SDS011;47228;46.762;23.598;2023-02-15T09:19:23;58.40;;;29.70;;
61358;SDS011;47228;46.762;23.598;2023-02-15T09:21:54;62.90;;;29.40;;
61358;SDS011;47228;46.762;23.598;2023-02-15T09:24:22;54.80;;;28.80;;
61358;SDS011;47228;46.762;23.598;2023-02-15T09:26:50;54.80;;;26.70;;
61358;SDS011;47228;46.762;23.598;2023-02-15T09:29:18;65.80;;;30.50;;
61358;SDS011;47228;46.762;23.598;2023-02-15T09:31:48;57.10;;;28.30;;
61358;SDS011;47228;46.762;23.598;2023-02-15T09:34:19;60.30;;;28.60;;
61358;SDS011;47228;46.762;23.598;2023-02-15T09:36:48;59.60;;;27.10;;
61358;SDS011;47228;46.762;23.598;2023-02-15T09:39:26;58.10;;;28.70;;
61358;SDS011;47228;46.762;23.598;2023-02-15T09:55:40;58.30;;;26.80;;
61358;SDS011;47228;46.762;23.598;2023-02-15T10:01:20;60.20;;;27.30;;
61358;SDS011;47228;46.762;23.598;2023-02-15T10:26:22;63.50;;;29.00;;
61358;SDS011;47228;46.762;23.598;2023-02-15T10:29:17;67.40;;;29.20;;
61358;SDS011;47228;46.762;23.598;2023-02-15T10:35:00;67.10;;;30.80;;
61358;SDS011;47228;46.762;23.598;2023-02-15T10:51:02;72.30;;;31.40;;
61358;SDS011;47228;46.762;23.598;2023-02-15T11:02:02;81.40;;;31.80;;
61358;SDS011;47228;46.762;23.598;2023-02-15T11:13:09;72.30;;;30.00;;
61358;SDS011;47228;46.762;23.598;2023-02-15T11:15:43;72.80;;;31.30;;
61358;SDS011;47228;46.762;23.598;2023-02-15T11:23:40;72.80;;;30.20;;
61358;SDS011;47228;46.762;23.598;2023-02-15T11:29:09;74.80;;;30.10;;
61358;SDS011;47228;46.762;23.598;2023-02-15T11:31:44;82.50;;;32.40;;
61358;SDS011;47228;46.762;23.598;2023-02-15T11:34:22;79.40;;;31.30;;
61358;SDS011;47228;46.762;23.598;2023-02-15T11:37:07;79.60;;;32.20;;
61358;SDS011;47228;46.762;23.598;2023-02-15T11:39:39;72.80;;;29.70;;
61358;SDS011;47228;46.762;23.598;2023-02-15T11:42:11;79.10;;;29.50;;
61358;SDS011;47228;46.762;23.598;2023-02-15T11:44:54;81.80;;;31.50;;
61358;SDS011;47228;46.762;23.598;2023-02-15T11:47:23;85.90;;;32.60;;
61358;SDS011;47228;46.762;23.598;2023-02-15T11:49:51;81.20;;;32.50;;
61358;SDS011;47228;46.762;23.598;2023-02-15T11:52:19;92.60;;;33.40;;
61358;SDS011;47228;46.762;23.598;2023-02-15T11:54:50;84.60;;;31.40;;
61358;SDS011;47228;46.762;23.598;2023-02-15T11:57:39;84.60;;;32.10;;
61358;SDS011;47228;46.762;23.598;2023-02-15T12:00:25;86.90;;;30.70;;
61358;SDS011;47228;46.762;23.598;2023-02-15T12:03:07;65.30;;;25.80;;
61358;SDS011;47228;46.762;23.598;2023-02-15T12:05:49;74.00;;;27.50;;
61358;SDS011;47228;46.762;23.598;2023-02-15T12:08:23;76.80;;;29.00;;
61358;SDS011;47228;46.762;23.598;2023-02-15T12:11:03;72.10;;;27.40;;
61358;SDS011;47228;46.762;23.598;2023-02-15T12:16:23;80.40;;;30.10;;
61358;SDS011;47228;46.762;23.598;2023-02-15T12:18:53;83.50;;;31.40;;
61358;SDS011;47228;46.762;23.598;2023-02-15T12:21:30;84.80;;;31.60;;
61358;SDS011;47228;46.762;23.598;2023-02-15T12:24:03;84.50;;;30.10;;
61358;SDS011;47228;46.762;23.598;2023-02-15T12:26:44;85.50;;;30.40;;
61358;SDS011;47228;46.762;23.598;2023-02-15T12:29:25;81.80;;;30.80;;
61358;SDS011;47228;46.762;23.598;2023-02-15T12:31:57;80.20;;;32.20;;
61358;SDS011;47228;46.762;23.598;2023-02-15T12:34:30;90.70;;;30.70;;
61358;SDS011;47228;46.762;23.598;2023-02-15T12:37:08;84.20;;;31.50;;
61358;SDS011;47228;46.762;23.598;2023-02-15T12:42:24;93.20;;;34.00;;
61358;SDS011;47228;46.762;23.598;2023-02-15T12:47:27;86.70;;;32.90;;
61358;SDS011;47228;46.762;23.598;2023-02-15T12:50:07;85.50;;;33.40;;
61358;SDS011;47228;46.762;23.598;2023-02-15T12:52:48;88.80;;;31.80;;
61358;SDS011;47228;46.762;23.598;2023-02-15T12:55:25;79.20;;;31.50;;
61358;SDS011;47228;46.762;23.598;2023-02-15T12:58:07;96.30;;;33.00;;
61358;SDS011;47228;46.762;23.598;2023-02-15T13:01:08;86.90;;;32.60;;
61358;SDS011;47228;46.762;23.598;2023-02-15T13:06:34;86.20;;;32.50;;
61358;SDS011;47228;46.762;23.598;2023-02-15T13:14:48;83.80;;;31.90;;
61358;SDS011;47228;46.762;23.598;2023-02-15T13:17:21;79.30;;;30.40;;
61358;SDS011;47228;46.762;23.598;2023-02-15T13:20:09;84.30;;;31.40;;
61358;SDS011;47228;46.762;23.598;2023-02-15T13:22:46;92.90;;;32.00;;
61358;SDS011;47228;46.762;23.598;2023-02-15T13:25:20;85.80;;;32.00;;
61358;SDS011;47228;46.762;23.598;2023-02-15T13:27:58;84.50;;;32.70;;
61358;SDS011;47228;46.762;23.598;2023-02-15T13:30:30;94.60;;;33.20;;
61358;SDS011;47228;46.762;23.598;2023-02-15T13:33:03;92.10;;;34.50;;
61358;SDS011;47228;46.762;23.598;2023-02-15T13:35:49;85.80;;;31.20;;
61358;SDS011;47228;46.762;23.598;2023-02-15T13:41:17;80.10;;;29.40;;
61358;SDS011;47228;46.762;23.598;2023-02-15T13:46:52;84.20;;;30.30;;
61358;SDS011;47228;46.762;23.598;2023-02-15T13:49:35;76.80;;;30.30;;
61358;SDS011;47228;46.762;23.598;2023-02-15T13:52:19;76.60;;;29.80;;
61358;SDS011;47228;46.762;23.598;2023-02-15T13:54:53;83.20;;;31.00;;
61358;SDS011;47228;46.762;23.598;2023-02-15T14:12:04;80.60;;;29.60;;
61358;SDS011;47228;46.762;23.598;2023-02-15T14:20:20;80.60;;;30.40;;
61358;SDS011;47228;46.762;23.598;2023-02-15T14:25:40;74.60;;;27.80;;
61358;SDS011;47228;46.762;23.598;2023-02-15T14:28:21;83.30;;;30.60;;
61358;SDS011;47228;46.762;23.598;2023-02-15T14:30:57;63.50;;;26.30;;
61358;SDS011;47228;46.762;23.598;2023-02-15T14:33:37;75.60;;;28.70;;
61358;SDS011;47228;46.762;23.598;2023-02-15T14:36:07;75.00;;;30.90;;
61358;SDS011;47228;46.762;23.598;2023-02-15T14:38:47;77.80;;;30.40;;
61358;SDS011;47228;46.762;23.598;2023-02-15T14:44:23;81.60;;;30.10;;
61358;SDS011;47228;46.762;23.598;2023-02-15T14:49:35;69.90;;;29.40;;
61358;SDS011;47228;46.762;23.598;2023-02-15T15:05:34;94.10;;;32.10;;
61358;SDS011;47228;46.762;23.598;2023-02-15T15:08:03;84.70;;;32.40;;
61358;SDS011;47228;46.762;23.598;2023-02-15T15:18:57;100.10;;;35.80;;
61358;SDS011;47228;46.762;23.598;2023-02-15T15:48:57;100.70;;;36.50;;
61358;SDS011;47228;46.762;23.598;2023-02-15T15:51:39;107.00;;;38.90;;
61358;SDS011;47228;46.762;23.598;2023-02-15T15:54:13;107.70;;;36.50;;
61358;SDS011;47228;46.762;23.598;2023-02-15T15:56:44;103.10;;;36.10;;
61358;SDS011;47228;46.762;23.598;2023-02-15T15:59:21;107.30;;;36.50;;
61358;SDS011;47228;46.762;23.598;2023-02-15T16:01:51;110.90;;;37.50;;
61358;SDS011;47228;46.762;23.598;2023-02-15T16:04:27;118.20;;;39.80;;
61358;SDS011;47228;46.762;23.598;2023-02-15T16:09:57;124.00;;;44.70;;
61358;SDS011;47228;46.762;23.598;2023-02-15T16:12:30;121.60;;;42.30;;
61358;SDS011;47228;46.762;23.598;2023-02-15T16:15:01;142.90;;;44.10;;
61358;SDS011;47228;46.762;23.598;2023-02-15T16:17:40;125.60;;;45.40;;
61358;SDS011;47228;46.762;23.598;2023-02-15T16:20:17;124.40;;;44.40;;
61358;SDS011;47228;46.762;23.598;2023-02-15T16:22:50;122.00;;;43.10;;
61358;SDS011;47228;46.762;23.598;2023-02-15T16:25:46;128.40;;;45.10;;
61358;SDS011;47228;46.762;23.598;2023-02-15T16:28:29;127.30;;;45.20;;
61358;SDS011;47228;46.762;23.598;2023-02-15T16:31:07;127.60;;;45.10;;
61358;SDS011;47228;46.762;23.598;2023-02-15T16:33:41;136.90;;;45.90;;
61358;SDS011;47228;46.762;23.598;2023-02-15T16:36:22;128.40;;;44.20;;
61358;SDS011;47228;46.762;23.598;2023-02-15T16:41:26;127.60;;;46.10;;
61358;SDS011;47228;46.762;23.598;2023-02-15T16:43:56;132.20;;;44.80;;
61358;SDS011;47228;46.762;23.598;2023-02-15T16:46:40;123.40;;;44.90;;
61358;SDS011;47228;46.762;23.598;2023-02-15T16:49:16;127.40;;;45.90;;
61358;SDS011;47228;46.762;23.598;2023-02-15T16:51:56;131.40;;;45.30;;
61358;SDS011;47228;46.762;23.598;2023-02-15T16:54:36;116.30;;;43.20;;
61358;SDS011;47228;46.762;23.598;2023-02-15T16:57:04;125.00;;;42.30;;
61358;SDS011;47228;46.762;23.598;2023-02-15T16:59:39;118.10;;;41.80;;
61358;SDS011;47228;46.762;23.598;2023-02-15T17:02:15;128.60;;;41.50;;
61358;SDS011;47228;46.762;23.598;2023-02-15T17:05:16;111.50;;;41.60;;
61358;SDS011;47228;46.762;23.598;2023-02-15T17:07:51;118.90;;;41.40;;
61358;SDS011;47228;46.762;23.598;2023-02-15T17:10:32;117.30;;;44.10;;
61358;SDS011;47228;46.762;23.598;2023-02-15T17:13:16;112.20;;;40.00;;
61358;SDS011;47228;46.762;23.598;2023-02-15T17:18:29;108.60;;;39.90;;
61358;SDS011;47228;46.762;23.598;2023-02-15T17:21:01;134.80;;;44.50;;
61358;SDS011;47228;46.762;23.598;2023-02-15T17:23:41;114.70;;;41.50;;
61358;SDS011;47228;46.762;23.598;2023-02-15T17:26:13;114.10;;;42.40;;
61358;SDS011;47228;46.762;23.598;2023-02-15T17:28:46;126.00;;;42.50;;
61358;SDS011;47228;46.762;23.598;2023-02-15T17:31:20;125.70;;;43.60;;
61358;SDS011;47228;46.762;23.598;2023-02-15T17:33:51;123.80;;;40.60;;
61358;SDS011;47228;46.762;23.598;2023-02-15T17:36:25;121.20;;;40.60;;
61358;SDS011;47228;46.762;23.598;2023-02-15T17:41:25;120.00;;;40.80;;
61358;SDS011;47228;46.762;23.598;2023-02-15T17:43:56;133.10;;;43.30;;
61358;SDS011;47228;46.762;23.598;2023-02-15T17:46:24;123.10;;;43.20;;
61358;SDS011;47228;46.762;23.598;2023-02-15T17:48:58;137.10;;;45.80;;
61358;SDS011;47228;46.762;23.598;2023-02-15T17:51:26;139.20;;;46.40;;
61358;SDS011;47228;46.762;23.598;2023-02-15T17:53:55;133.40;;;46.90;;
61358;SDS011;47228;46.762;23.598;2023-02-15T17:56:41;148.90;;;46.80;;
61358;SDS011;47228;46.762;23.598;2023-02-15T17:59:11;159.90;;;48.80;;
61358;SDS011;47228;46.762;23.598;2023-02-15T18:01:43;153.40;;;49.50;;
61358;SDS011;47228;46.762;23.598;2023-02-15T18:04:32;182.00;;;52.50;;
61358;SDS011;47228;46.762;23.598;2023-02-15T18:07:22;188.40;;;53.10;;
61358;SDS011;47228;46.762;23.598;2023-02-15T18:10:11;166.90;;;50.70;;
61358;SDS011;47228;46.762;23.598;2023-02-15T18:13:00;184.40;;;53.60;;
61358;SDS011;47228;46.762;23.598;2023-02-15T18:15:29;176.20;;;50.40;;
61358;SDS011;47228;46.762;23.598;2023-02-15T18:17:58;170.00;;;51.70;;
61358;SDS011;47228;46.762;23.598;2023-02-15T18:20:29;175.40;;;52.20;;
61358;SDS011;47228;46.762;23.598;2023-02-15T18:23:01;159.90;;;54.40;;
61358;SDS011;47228;46.762;23.598;2023-02-15T18:25:29;173.80;;;53.90;;
61358;SDS011;47228;46.762;23.598;2023-02-15T18:27:58;161.70;;;52.80;;
61358;SDS011;47228;46.762;23.598;2023-02-15T18:30:29;165.40;;;56.20;;
61358;SDS011;47228;46.762;23.598;2023-02-15T18:32:58;163.20;;;54.30;;
61358;SDS011;47228;46.762;23.598;2023-02-15T18:35:27;163.20;;;53.00;;